sensor_id;sensor_type;location;lat;lon;timestamp;P1;durP1;ratioP1;P2;durP2;ratioP2
21771;SDS011;11047;47.904;8.110;2024-03-29T00:02:00;2.45;;;0.88;;
21771;SDS011;11047;47.904;8.110;2024-03-29T00:04:28;1.10;;;0.70;;
21771;SDS011;11047;47.904;8.110;2024-03-29T00:06:54;3.70;;;1.08;;
21771;SDS011;11047;47.904;8.110;2024-03-29T00:09:20;0.88;;;0.70;;
21771;SDS011;11047;47.904;8.110;2024-03-29T00:11:46;1.60;;;0.75;;
21771;SDS011;11047;47.904;8.110;2024-03-29T00:14:12;2.97;;;0.85;;
21771;SDS011;11047;47.904;8.110;2024-03-29T00:16:38;3.25;;;0.70;;
21771;SDS011;11047;47.904;8.110;2024-03-29T00:19:04;1.55;;;1.00;;
21771;SDS011;11047;47.904;8.110;2024-03-29T00:21:31;1.20;;;0.80;;
21771;SDS011;11047;47.904;8.110;2024-03-29T00:23:57;3.05;;;0.77;;
21771;SDS011;11047;47.904;8.110;2024-03-29T00:26:23;1.05;;;0.70;;
21771;SDS011;11047;47.904;8.110;2024-03-29T00:28:49;4.38;;;1.00;;
21771;SDS011;11047;47.904;8.110;2024-03-29T00:31:15;1.52;;;0.80;;
21771;SDS011;11047;47.904;8.110;2024-03-29T00:33:41;2.15;;;0.90;;
21771;SDS011;11047;47.904;8.110;2024-03-29T00:36:07;2.03;;;0.60;;
21771;SDS011;11047;47.904;8.110;2024-03-29T00:38:35;1.65;;;0.90;;
21771;SDS011;11047;47.904;8.110;2024-03-29T00:41:01;2.45;;;0.88;;
21771;SDS011;11047;47.904;8.110;2024-03-29T00:43:27;1.95;;;0.80;;
21771;SDS011;11047;47.904;8.110;2024-03-29T00:45:53;2.55;;;0.90;;
21771;SDS011;11047;47.904;8.110;2024-03-29T00:48:19;2.22;;;0.70;;
21771;SDS011;11047;47.904;8.110;2024-03-29T00:50:45;0.85;;;0.60;;
21771;SDS011;11047;47.904;8.110;2024-03-29T00:53:11;1.88;;;0.73;;
21771;SDS011;11047;47.904;8.110;2024-03-29T00:55:38;1.45;;;0.88;;
21771;SDS011;11047;47.904;8.110;2024-03-29T00:58:04;1.55;;;0.73;;
21771;SDS011;11047;47.904;8.110;2024-03-29T01:00:30;0.77;;;0.70;;
21771;SDS011;11047;47.904;8.110;2024-03-29T01:02:56;1.17;;;0.70;;
21771;SDS011;11047;47.904;8.110;2024-03-29T01:05:22;1.67;;;0.70;;
21771;SDS011;11047;47.904;8.110;2024-03-29T01:07:48;1.38;;;0.85;;
21771;SDS011;11047;47.904;8.110;2024-03-29T01:10:14;1.05;;;0.70;;
21771;SDS011;11047;47.904;8.110;2024-03-29T01:12:42;2.85;;;0.73;;
21771;SDS011;11047;47.904;8.110;2024-03-29T01:15:08;1.45;;;0.70;;
21771;SDS011;11047;47.904;8.110;2024-03-29T01:17:34;3.38;;;0.65;;
21771;SDS011;11047;47.904;8.110;2024-03-29T01:20:00;1.50;;;0.68;;
21771;SDS011;11047;47.904;8.110;2024-03-29T01:22:26;0.75;;;0.70;;
21771;SDS011;11047;47.904;8.110;2024-03-29T01:24:52;0.77;;;0.70;;
21771;SDS011;11047;47.904;8.110;2024-03-29T01:27:18;2.20;;;0.60;;
21771;SDS011;11047;47.904;8.110;2024-03-29T01:29:45;1.77;;;0.75;;
21771;SDS011;11047;47.904;8.110;2024-03-29T01:32:11;1.27;;;0.50;;
21771;SDS011;11047;47.904;8.110;2024-03-29T01:34:37;1.88;;;0.60;;
21771;SDS011;11047;47.904;8.110;2024-03-29T01:37:03;5.60;;;0.80;;
21771;SDS011;11047;47.904;8.110;2024-03-29T01:39:30;1.52;;;0.55;;
21771;SDS011;11047;47.904;8.110;2024-03-29T01:41:56;1.45;;;0.50;;
21771;SDS011;11047;47.904;8.110;2024-03-29T01:44:22;1.13;;;0.63;;
21771;SDS011;11047;47.904;8.110;2024-03-29T01:46:50;1.17;;;0.70;;
21771;SDS011;11047;47.904;8.110;2024-03-29T01:49:17;1.08;;;0.50;;
21771;SDS011;11047;47.904;8.110;2024-03-29T01:51:43;0.70;;;0.57;;
21771;SDS011;11047;47.904;8.110;2024-03-29T01:54:11;0.60;;;0.60;;
21771;SDS011;11047;47.904;8.110;2024-03-29T01:56:38;1.10;;;0.50;;
21771;SDS011;11047;47.904;8.110;2024-03-29T01:59:08;0.80;;;0.60;;
21771;SDS011;11047;47.904;8.110;2024-03-29T02:01:40;3.40;;;0.90;;
21771;SDS011;11047;47.904;8.110;2024-03-29T02:04:09;0.93;;;0.50;;
21771;SDS011;11047;47.904;8.110;2024-03-29T02:06:36;1.40;;;0.57;;
21771;SDS011;11047;47.904;8.110;2024-03-29T02:09:04;0.88;;;0.50;;
21771;SDS011;11047;47.904;8.110;2024-03-29T02:11:31;2.85;;;0.55;;
21771;SDS011;11047;47.904;8.110;2024-03-29T02:13:58;0.80;;;0.60;;
21771;SDS011;11047;47.904;8.110;2024-03-29T02:16:24;1.85;;;0.70;;
21771;SDS011;11047;47.904;8.110;2024-03-29T02:18:51;2.72;;;0.65;;
21771;SDS011;11047;47.904;8.110;2024-03-29T02:21:20;0.50;;;0.40;;
21771;SDS011;11047;47.904;8.110;2024-03-29T02:23:47;2.60;;;0.40;;
21771;SDS011;11047;47.904;8.110;2024-03-29T02:26:23;0.60;;;0.60;;
21771;SDS011;11047;47.904;8.110;2024-03-29T02:28:56;2.15;;;0.60;;
21771;SDS011;11047;47.904;8.110;2024-03-29T02:31:23;0.43;;;0.43;;
21771;SDS011;11047;47.904;8.110;2024-03-29T02:33:50;0.30;;;0.30;;
21771;SDS011;11047;47.904;8.110;2024-03-29T02:36:17;0.50;;;0.50;;
21771;SDS011;11047;47.904;8.110;2024-03-29T02:38:44;0.68;;;0.50;;
21771;SDS011;11047;47.904;8.110;2024-03-29T02:41:12;0.38;;;0.38;;
21771;SDS011;11047;47.904;8.110;2024-03-29T02:43:39;1.08;;;0.60;;
21771;SDS011;11047;47.904;8.110;2024-03-29T02:46:06;1.45;;;0.50;;
21771;SDS011;11047;47.904;8.110;2024-03-29T02:48:32;1.20;;;0.50;;
21771;SDS011;11047;47.904;8.110;2024-03-29T02:50:59;0.65;;;0.50;;
21771;SDS011;11047;47.904;8.110;2024-03-29T02:53:25;0.52;;;0.52;;
21771;SDS011;11047;47.904;8.110;2024-03-29T02:55:52;0.30;;;0.30;;
21771;SDS011;11047;47.904;8.110;2024-03-29T02:58:19;0.50;;;0.50;;
21771;SDS011;11047;47.904;8.110;2024-03-29T03:00:46;0.68;;;0.50;;
21771;SDS011;11047;47.904;8.110;2024-03-29T03:03:14;0.57;;;0.40;;
21771;SDS011;11047;47.904;8.110;2024-03-29T03:05:42;0.75;;;0.60;;
21771;SDS011;11047;47.904;8.110;2024-03-29T03:08:08;7.45;;;0.40;;
21771;SDS011;11047;47.904;8.110;2024-03-29T03:10:52;0.85;;;0.57;;
21771;SDS011;11047;47.904;8.110;2024-03-29T03:13:25;3.05;;;0.40;;
21771;SDS011;11047;47.904;8.110;2024-03-29T03:15:52;2.55;;;0.40;;
21771;SDS011;11047;47.904;8.110;2024-03-29T03:18:18;0.75;;;0.40;;
21771;SDS011;11047;47.904;8.110;2024-03-29T03:20:49;0.30;;;0.30;;
21771;SDS011;11047;47.904;8.110;2024-03-29T03:23:16;0.38;;;0.32;;
21771;SDS011;11047;47.904;8.110;2024-03-29T03:25:43;0.50;;;0.50;;
21771;SDS011;11047;47.904;8.110;2024-03-29T03:28:10;1.33;;;0.65;;
21771;SDS011;11047;47.904;8.110;2024-03-29T03:30:39;0.57;;;0.47;;
21771;SDS011;11047;47.904;8.110;2024-03-29T03:33:05;0.95;;;0.50;;
21771;SDS011;11047;47.904;8.110;2024-03-29T03:35:32;0.40;;;0.35;;
21771;SDS011;11047;47.904;8.110;2024-03-29T03:37:58;1.13;;;0.75;;
21771;SDS011;11047;47.904;8.110;2024-03-29T03:40:24;1.40;;;0.60;;
21771;SDS011;11047;47.904;8.110;2024-03-29T03:42:50;0.45;;;0.45;;
21771;SDS011;11047;47.904;8.110;2024-03-29T03:45:17;0.98;;;0.45;;
21771;SDS011;11047;47.904;8.110;2024-03-29T03:47:45;1.42;;;0.50;;
21771;SDS011;11047;47.904;8.110;2024-03-29T03:50:12;1.63;;;0.60;;
21771;SDS011;11047;47.904;8.110;2024-03-29T03:52:38;1.10;;;0.60;;
21771;SDS011;11047;47.904;8.110;2024-03-29T03:55:05;1.58;;;0.52;;
21771;SDS011;11047;47.904;8.110;2024-03-29T03:57:31;1.38;;;0.60;;
21771;SDS011;11047;47.904;8.110;2024-03-29T03:59:59;3.13;;;1.05;;
21771;SDS011;11047;47.904;8.110;2024-03-29T04:02:25;1.35;;;0.77;;
21771;SDS011;11047;47.904;8.110;2024-03-29T04:04:54;2.10;;;0.85;;
21771;SDS011;11047;47.904;8.110;2024-03-29T04:07:20;2.88;;;1.10;;
21771;SDS011;11047;47.904;8.110;2024-03-29T04:09:50;4.60;;;2.20;;
21771;SDS011;11047;47.904;8.110;2024-03-29T04:12:16;5.25;;;2.72;;
21771;SDS011;11047;47.904;8.110;2024-03-29T04:14:43;2.60;;;1.95;;
21771;SDS011;11047;47.904;8.110;2024-03-29T04:17:09;3.78;;;2.75;;
21771;SDS011;11047;47.904;8.110;2024-03-29T04:19:36;5.50;;;2.58;;
21771;SDS011;11047;47.904;8.110;2024-03-29T04:22:03;3.70;;;2.50;;
21771;SDS011;11047;47.904;8.110;2024-03-29T04:24:31;5.78;;;1.90;;
21771;SDS011;11047;47.904;8.110;2024-03-29T04:26:57;2.40;;;1.50;;
21771;SDS011;11047;47.904;8.110;2024-03-29T04:29:24;2.92;;;1.70;;
21771;SDS011;11047;47.904;8.110;2024-03-29T04:31:50;3.15;;;1.55;;
21771;SDS011;11047;47.904;8.110;2024-03-29T04:34:17;3.15;;;1.45;;
21771;SDS011;11047;47.904;8.110;2024-03-29T04:36:43;2.08;;;1.15;;
21771;SDS011;11047;47.904;8.110;2024-03-29T04:39:12;3.53;;;1.52;;
21771;SDS011;11047;47.904;8.110;2024-03-29T04:41:39;2.03;;;1.17;;
21771;SDS011;11047;47.904;8.110;2024-03-29T04:44:06;6.55;;;1.80;;
21771;SDS011;11047;47.904;8.110;2024-03-29T04:46:33;2.22;;;1.25;;
21771;SDS011;11047;47.904;8.110;2024-03-29T04:49:01;2.22;;;1.10;;
21771;SDS011;11047;47.904;8.110;2024-03-29T04:51:27;2.38;;;1.27;;
21771;SDS011;11047;47.904;8.110;2024-03-29T04:53:54;1.20;;;0.90;;
21771;SDS011;11047;47.904;8.110;2024-03-29T04:56:23;2.63;;;1.02;;
21771;SDS011;11047;47.904;8.110;2024-03-29T04:58:49;2.40;;;0.77;;
21771;SDS011;11047;47.904;8.110;2024-03-29T05:01:16;0.68;;;0.68;;
21771;SDS011;11047;47.904;8.110;2024-03-29T05:03:43;1.15;;;0.90;;
21771;SDS011;11047;47.904;8.110;2024-03-29T05:06:10;0.77;;;0.68;;
21771;SDS011;11047;47.904;8.110;2024-03-29T05:08:36;1.20;;;0.70;;
21771;SDS011;11047;47.904;8.110;2024-03-29T05:11:03;0.88;;;0.60;;
21771;SDS011;11047;47.904;8.110;2024-03-29T05:13:34;1.05;;;0.70;;
21771;SDS011;11047;47.904;8.110;2024-03-29T05:16:01;1.27;;;0.70;;
21771;SDS011;11047;47.904;8.110;2024-03-29T05:18:28;0.75;;;0.45;;
21771;SDS011;11047;47.904;8.110;2024-03-29T05:20:55;1.40;;;0.60;;
21771;SDS011;11047;47.904;8.110;2024-03-29T05:23:22;1.95;;;0.70;;
21771;SDS011;11047;47.904;8.110;2024-03-29T05:25:49;0.85;;;0.45;;
21771;SDS011;11047;47.904;8.110;2024-03-29T05:28:17;0.52;;;0.50;;
21771;SDS011;11047;47.904;8.110;2024-03-29T05:30:45;2.25;;;0.70;;
21771;SDS011;11047;47.904;8.110;2024-03-29T05:33:12;0.88;;;0.60;;
21771;SDS011;11047;47.904;8.110;2024-03-29T05:35:40;5.13;;;0.63;;
21771;SDS011;11047;47.904;8.110;2024-03-29T05:38:07;0.63;;;0.57;;
21771;SDS011;11047;47.904;8.110;2024-03-29T05:40:34;0.43;;;0.43;;
21771;SDS011;11047;47.904;8.110;2024-03-29T05:43:03;1.02;;;0.70;;
21771;SDS011;11047;47.904;8.110;2024-03-29T05:45:30;0.80;;;0.70;;
21771;SDS011;11047;47.904;8.110;2024-03-29T05:47:59;0.60;;;0.60;;
21771;SDS011;11047;47.904;8.110;2024-03-29T05:50:26;2.60;;;0.57;;
21771;SDS011;11047;47.904;8.110;2024-03-29T05:52:53;1.23;;;0.60;;
21771;SDS011;11047;47.904;8.110;2024-03-29T05:55:20;0.63;;;0.60;;
21771;SDS011;11047;47.904;8.110;2024-03-29T05:57:46;0.40;;;0.40;;
21771;SDS011;11047;47.904;8.110;2024-03-29T06:00:14;1.10;;;0.50;;
21771;SDS011;11047;47.904;8.110;2024-03-29T06:02:41;1.45;;;0.90;;
21771;SDS011;11047;47.904;8.110;2024-03-29T06:05:11;0.73;;;0.43;;
21771;SDS011;11047;47.904;8.110;2024-03-29T06:07:38;1.27;;;0.52;;
21771;SDS011;11047;47.904;8.110;2024-03-29T06:10:05;2.70;;;0.63;;
21771;SDS011;11047;47.904;8.110;2024-03-29T06:12:34;0.60;;;0.60;;
21771;SDS011;11047;47.904;8.110;2024-03-29T06:15:03;0.40;;;0.40;;
21771;SDS011;11047;47.904;8.110;2024-03-29T06:17:48;0.40;;;0.40;;
21771;SDS011;11047;47.904;8.110;2024-03-29T06:20:17;0.40;;;0.40;;
21771;SDS011;11047;47.904;8.110;2024-03-29T06:22:44;1.00;;;0.50;;
21771;SDS011;11047;47.904;8.110;2024-03-29T06:25:11;1.20;;;0.47;;
21771;SDS011;11047;47.904;8.110;2024-03-29T06:27:38;1.40;;;0.57;;
21771;SDS011;11047;47.904;8.110;2024-03-29T06:30:05;3.33;;;0.60;;
21771;SDS011;11047;47.904;8.110;2024-03-29T06:32:33;2.50;;;0.57;;
21771;SDS011;11047;47.904;8.110;2024-03-29T06:35:00;3.47;;;1.88;;
21771;SDS011;11047;47.904;8.110;2024-03-29T06:37:29;0.63;;;0.63;;
21771;SDS011;11047;47.904;8.110;2024-03-29T06:39:56;1.48;;;0.68;;
21771;SDS011;11047;47.904;8.110;2024-03-29T06:42:22;2.28;;;0.50;;
21771;SDS011;11047;47.904;8.110;2024-03-29T06:44:50;1.05;;;0.52;;
21771;SDS011;11047;47.904;8.110;2024-03-29T06:47:17;2.58;;;0.60;;
21771;SDS011;11047;47.904;8.110;2024-03-29T06:49:44;0.77;;;0.50;;
21771;SDS011;11047;47.904;8.110;2024-03-29T06:52:11;1.67;;;0.57;;
21771;SDS011;11047;47.904;8.110;2024-03-29T06:54:40;0.63;;;0.55;;
21771;SDS011;11047;47.904;8.110;2024-03-29T06:57:07;2.03;;;0.77;;
21771;SDS011;11047;47.904;8.110;2024-03-29T06:59:35;0.93;;;0.43;;
21771;SDS011;11047;47.904;8.110;2024-03-29T07:02:02;1.20;;;0.73;;
21771;SDS011;11047;47.904;8.110;2024-03-29T07:04:31;1.92;;;1.83;;
21771;SDS011;11047;47.904;8.110;2024-03-29T07:06:58;0.95;;;0.73;;
21771;SDS011;11047;47.904;8.110;2024-03-29T07:09:25;2.08;;;1.17;;
21771;SDS011;11047;47.904;8.110;2024-03-29T07:11:54;0.70;;;0.70;;
21771;SDS011;11047;47.904;8.110;2024-03-29T07:14:21;2.13;;;0.63;;
21771;SDS011;11047;47.904;8.110;2024-03-29T07:16:48;0.82;;;0.70;;
21771;SDS011;11047;47.904;8.110;2024-03-29T07:19:15;0.70;;;0.60;;
21771;SDS011;11047;47.904;8.110;2024-03-29T07:21:44;0.70;;;0.70;;
21771;SDS011;11047;47.904;8.110;2024-03-29T07:24:11;1.60;;;0.80;;
21771;SDS011;11047;47.904;8.110;2024-03-29T07:26:38;0.68;;;0.52;;
21771;SDS011;11047;47.904;8.110;2024-03-29T07:29:06;1.40;;;0.73;;
21771;SDS011;11047;47.904;8.110;2024-03-29T07:31:33;0.75;;;0.75;;
21771;SDS011;11047;47.904;8.110;2024-03-29T07:34:00;0.80;;;0.60;;
21771;SDS011;11047;47.904;8.110;2024-03-29T07:36:27;1.00;;;0.47;;
21771;SDS011;11047;47.904;8.110;2024-03-29T07:38:59;1.25;;;0.68;;
21771;SDS011;11047;47.904;8.110;2024-03-29T07:41:26;0.77;;;0.73;;
21771;SDS011;11047;47.904;8.110;2024-03-29T07:43:53;0.60;;;0.60;;
21771;SDS011;11047;47.904;8.110;2024-03-29T07:46:23;0.82;;;0.73;;
21771;SDS011;11047;47.904;8.110;2024-03-29T07:48:50;0.75;;;0.70;;
21771;SDS011;11047;47.904;8.110;2024-03-29T07:51:17;1.83;;;0.80;;
21771;SDS011;11047;47.904;8.110;2024-03-29T07:53:44;1.20;;;0.75;;
21771;SDS011;11047;47.904;8.110;2024-03-29T07:56:11;1.13;;;0.70;;
21771;SDS011;11047;47.904;8.110;2024-03-29T07:58:38;2.10;;;1.10;;
21771;SDS011;11047;47.904;8.110;2024-03-29T08:01:05;1.13;;;0.90;;
21771;SDS011;11047;47.904;8.110;2024-03-29T08:03:33;1.02;;;0.82;;
21771;SDS011;11047;47.904;8.110;2024-03-29T08:06:01;2.80;;;0.80;;
21771;SDS011;11047;47.904;8.110;2024-03-29T08:08:29;3.45;;;0.90;;
21771;SDS011;11047;47.904;8.110;2024-03-29T08:10:56;1.80;;;1.10;;
21771;SDS011;11047;47.904;8.110;2024-03-29T08:13:24;1.60;;;1.20;;
21771;SDS011;11047;47.904;8.110;2024-03-29T08:15:56;2.58;;;1.55;;
21771;SDS011;11047;47.904;8.110;2024-03-29T08:18:24;3.58;;;2.00;;
21771;SDS011;11047;47.904;8.110;2024-03-29T08:20:53;2.88;;;1.70;;
21771;SDS011;11047;47.904;8.110;2024-03-29T08:23:21;2.40;;;1.08;;
21771;SDS011;11047;47.904;8.110;2024-03-29T08:25:48;1.27;;;0.80;;
21771;SDS011;11047;47.904;8.110;2024-03-29T08:28:16;1.63;;;0.85;;
21771;SDS011;11047;47.904;8.110;2024-03-29T08:30:43;2.20;;;0.85;;
21771;SDS011;11047;47.904;8.110;2024-03-29T08:33:10;1.02;;;0.70;;
21771;SDS011;11047;47.904;8.110;2024-03-29T08:35:37;1.27;;;0.85;;
21771;SDS011;11047;47.904;8.110;2024-03-29T08:38:09;2.25;;;0.90;;
21771;SDS011;11047;47.904;8.110;2024-03-29T08:40:38;1.45;;;0.90;;
21771;SDS011;11047;47.904;8.110;2024-03-29T08:43:08;1.77;;;0.82;;
21771;SDS011;11047;47.904;8.110;2024-03-29T08:45:35;0.63;;;0.55;;
21771;SDS011;11047;47.904;8.110;2024-03-29T08:48:05;1.60;;;0.93;;
21771;SDS011;11047;47.904;8.110;2024-03-29T08:50:33;2.50;;;1.05;;
21771;SDS011;11047;47.904;8.110;2024-03-29T08:53:00;1.45;;;1.05;;
21771;SDS011;11047;47.904;8.110;2024-03-29T08:55:29;3.90;;;1.00;;
21771;SDS011;11047;47.904;8.110;2024-03-29T08:57:56;1.42;;;0.80;;
21771;SDS011;11047;47.904;8.110;2024-03-29T09:00:24;2.08;;;1.65;;
21771;SDS011;11047;47.904;8.110;2024-03-29T09:02:51;1.08;;;0.98;;
21771;SDS011;11047;47.904;8.110;2024-03-29T09:05:18;1.80;;;1.02;;
21771;SDS011;11047;47.904;8.110;2024-03-29T09:07:47;1.17;;;1.00;;
21771;SDS011;11047;47.904;8.110;2024-03-29T09:10:14;1.20;;;0.90;;
21771;SDS011;11047;47.904;8.110;2024-03-29T09:12:42;1.65;;;0.85;;
21771;SDS011;11047;47.904;8.110;2024-03-29T09:15:09;2.53;;;1.00;;
21771;SDS011;11047;47.904;8.110;2024-03-29T09:17:38;2.28;;;0.80;;
21771;SDS011;11047;47.904;8.110;2024-03-29T09:20:06;0.80;;;0.70;;
21771;SDS011;11047;47.904;8.110;2024-03-29T09:22:33;1.05;;;0.50;;
21771;SDS011;11047;47.904;8.110;2024-03-29T09:25:01;1.98;;;0.90;;
21771;SDS011;11047;47.904;8.110;2024-03-29T09:27:29;1.58;;;0.93;;
21771;SDS011;11047;47.904;8.110;2024-03-29T09:30:00;1.58;;;0.60;;
21771;SDS011;11047;47.904;8.110;2024-03-29T09:32:27;1.15;;;0.68;;
21771;SDS011;11047;47.904;8.110;2024-03-29T09:34:53;1.02;;;0.52;;
21771;SDS011;11047;47.904;8.110;2024-03-29T09:37:20;0.55;;;0.45;;
21771;SDS011;11047;47.904;8.110;2024-03-29T09:39:49;2.30;;;0.77;;
21771;SDS011;11047;47.904;8.110;2024-03-29T09:42:16;1.13;;;0.70;;
21771;SDS011;11047;47.904;8.110;2024-03-29T09:44:44;0.63;;;0.63;;
21771;SDS011;11047;47.904;8.110;2024-03-29T09:47:14;1.23;;;0.68;;
21771;SDS011;11047;47.904;8.110;2024-03-29T09:49:43;1.45;;;0.65;;
21771;SDS011;11047;47.904;8.110;2024-03-29T09:52:12;0.57;;;0.43;;
21771;SDS011;11047;47.904;8.110;2024-03-29T09:54:40;1.08;;;0.70;;
21771;SDS011;11047;47.904;8.110;2024-03-29T09:57:07;2.10;;;1.08;;
21771;SDS011;11047;47.904;8.110;2024-03-29T09:59:36;3.40;;;1.00;;
21771;SDS011;11047;47.904;8.110;2024-03-29T10:02:04;1.15;;;0.52;;
21771;SDS011;11047;47.904;8.110;2024-03-29T10:04:39;0.95;;;0.80;;
21771;SDS011;11047;47.904;8.110;2024-03-29T10:07:07;3.17;;;0.80;;
21771;SDS011;11047;47.904;8.110;2024-03-29T10:09:35;1.65;;;0.77;;
21771;SDS011;11047;47.904;8.110;2024-03-29T10:12:02;1.77;;;0.65;;
21771;SDS011;11047;47.904;8.110;2024-03-29T10:14:30;2.17;;;0.70;;
21771;SDS011;11047;47.904;8.110;2024-03-29T10:16:57;2.15;;;0.63;;
21771;SDS011;11047;47.904;8.110;2024-03-29T10:19:24;0.50;;;0.50;;
21771;SDS011;11047;47.904;8.110;2024-03-29T10:21:53;0.50;;;0.50;;
21771;SDS011;11047;47.904;8.110;2024-03-29T10:24:33;2.35;;;0.68;;
21771;SDS011;11047;47.904;8.110;2024-03-29T10:27:00;1.80;;;0.70;;
21771;SDS011;11047;47.904;8.110;2024-03-29T10:29:27;1.42;;;0.50;;
21771;SDS011;11047;47.904;8.110;2024-03-29T10:31:54;1.20;;;0.82;;
21771;SDS011;11047;47.904;8.110;2024-03-29T10:34:22;1.48;;;0.60;;
21771;SDS011;11047;47.904;8.110;2024-03-29T10:36:51;0.73;;;0.50;;
21771;SDS011;11047;47.904;8.110;2024-03-29T10:39:20;2.60;;;0.80;;
21771;SDS011;11047;47.904;8.110;2024-03-29T10:41:47;1.52;;;0.70;;
21771;SDS011;11047;47.904;8.110;2024-03-29T10:44:16;2.63;;;0.70;;
21771;SDS011;11047;47.904;8.110;2024-03-29T10:46:45;0.65;;;0.65;;
21771;SDS011;11047;47.904;8.110;2024-03-29T10:49:16;2.50;;;0.88;;
21771;SDS011;11047;47.904;8.110;2024-03-29T10:51:44;2.95;;;0.98;;
21771;SDS011;11047;47.904;8.110;2024-03-29T10:54:11;1.77;;;1.00;;
21771;SDS011;11047;47.904;8.110;2024-03-29T10:56:40;2.65;;;1.60;;
21771;SDS011;11047;47.904;8.110;2024-03-29T10:59:11;1.25;;;0.80;;
21771;SDS011;11047;47.904;8.110;2024-03-29T11:01:44;0.95;;;0.50;;
21771;SDS011;11047;47.904;8.110;2024-03-29T11:04:16;1.52;;;1.10;;
21771;SDS011;11047;47.904;8.110;2024-03-29T11:06:48;0.65;;;0.47;;
21771;SDS011;11047;47.904;8.110;2024-03-29T11:09:17;1.70;;;0.55;;
21771;SDS011;11047;47.904;8.110;2024-03-29T11:11:50;1.45;;;0.75;;
21771;SDS011;11047;47.904;8.110;2024-03-29T11:14:18;1.50;;;0.70;;
21771;SDS011;11047;47.904;8.110;2024-03-29T11:16:50;2.47;;;0.90;;
21771;SDS011;11047;47.904;8.110;2024-03-29T11:19:22;1.40;;;0.60;;
21771;SDS011;11047;47.904;8.110;2024-03-29T11:21:49;2.88;;;1.08;;
21771;SDS011;11047;47.904;8.110;2024-03-29T11:24:17;0.60;;;0.52;;
21771;SDS011;11047;47.904;8.110;2024-03-29T11:26:44;0.50;;;0.40;;
21771;SDS011;11047;47.904;8.110;2024-03-29T11:29:19;0.82;;;0.50;;
21771;SDS011;11047;47.904;8.110;2024-03-29T11:31:46;0.98;;;0.50;;
21771;SDS011;11047;47.904;8.110;2024-03-29T11:34:18;0.40;;;0.40;;
21771;SDS011;11047;47.904;8.110;2024-03-29T11:36:45;0.95;;;0.50;;
21771;SDS011;11047;47.904;8.110;2024-03-29T11:39:19;1.23;;;0.60;;
21771;SDS011;11047;47.904;8.110;2024-03-29T11:41:47;0.57;;;0.57;;
21771;SDS011;11047;47.904;8.110;2024-03-29T11:44:15;1.00;;;0.50;;
21771;SDS011;11047;47.904;8.110;2024-03-29T11:46:43;0.65;;;0.65;;
21771;SDS011;11047;47.904;8.110;2024-03-29T11:49:11;1.70;;;0.50;;
21771;SDS011;11047;47.904;8.110;2024-03-29T11:51:40;0.47;;;0.45;;
21771;SDS011;11047;47.904;8.110;2024-03-29T11:54:07;0.88;;;0.70;;
21771;SDS011;11047;47.904;8.110;2024-03-29T11:56:34;1.08;;;0.55;;
21771;SDS011;11047;47.904;8.110;2024-03-29T11:59:03;0.40;;;0.30;;
21771;SDS011;11047;47.904;8.110;2024-03-29T12:01:30;1.70;;;1.60;;
21771;SDS011;11047;47.904;8.110;2024-03-29T12:04:00;0.60;;;0.60;;
21771;SDS011;11047;47.904;8.110;2024-03-29T12:06:27;1.20;;;0.30;;
21771;SDS011;11047;47.904;8.110;2024-03-29T12:08:54;0.40;;;0.40;;
21771;SDS011;11047;47.904;8.110;2024-03-29T12:11:22;0.60;;;0.60;;
21771;SDS011;11047;47.904;8.110;2024-03-29T12:13:49;1.25;;;0.68;;
21771;SDS011;11047;47.904;8.110;2024-03-29T12:16:17;4.03;;;3.33;;
21771;SDS011;11047;47.904;8.110;2024-03-29T12:18:46;1.95;;;0.50;;
21771;SDS011;11047;47.904;8.110;2024-03-29T12:21:15;2.70;;;0.47;;
21771;SDS011;11047;47.904;8.110;2024-03-29T12:23:46;0.55;;;0.55;;
21771;SDS011;11047;47.904;8.110;2024-03-29T12:26:14;1.20;;;0.30;;
21771;SDS011;11047;47.904;8.110;2024-03-29T12:28:47;0.50;;;0.30;;
21771;SDS011;11047;47.904;8.110;2024-03-29T12:31:15;0.30;;;0.20;;
21771;SDS011;11047;47.904;8.110;2024-03-29T12:33:50;1.00;;;0.68;;
21771;SDS011;11047;47.904;8.110;2024-03-29T12:36:22;1.15;;;0.65;;
21771;SDS011;11047;47.904;8.110;2024-03-29T12:38:53;0.70;;;0.50;;
21771;SDS011;11047;47.904;8.110;2024-03-29T12:41:23;1.70;;;0.77;;
21771;SDS011;11047;47.904;8.110;2024-03-29T12:43:50;3.95;;;0.50;;
21771;SDS011;11047;47.904;8.110;2024-03-29T12:46:17;0.50;;;0.50;;
21771;SDS011;11047;47.904;8.110;2024-03-29T12:48:44;0.50;;;0.50;;
21771;SDS011;11047;47.904;8.110;2024-03-29T12:51:12;1.40;;;0.35;;
21771;SDS011;11047;47.904;8.110;2024-03-29T12:53:45;1.40;;;0.65;;
21771;SDS011;11047;47.904;8.110;2024-03-29T12:56:14;0.77;;;0.70;;
21771;SDS011;11047;47.904;8.110;2024-03-29T12:58:41;0.32;;;0.32;;
21771;SDS011;11047;47.904;8.110;2024-03-29T13:01:08;0.35;;;0.32;;
21771;SDS011;11047;47.904;8.110;2024-03-29T13:03:36;0.93;;;0.85;;
21771;SDS011;11047;47.904;8.110;2024-03-29T13:06:06;1.17;;;0.50;;
21771;SDS011;11047;47.904;8.110;2024-03-29T13:08:33;1.05;;;0.65;;
21771;SDS011;11047;47.904;8.110;2024-03-29T13:11:02;0.30;;;0.30;;
21771;SDS011;11047;47.904;8.110;2024-03-29T13:13:28;0.57;;;0.50;;
21771;SDS011;11047;47.904;8.110;2024-03-29T13:15:55;0.77;;;0.77;;
21771;SDS011;11047;47.904;8.110;2024-03-29T13:18:22;0.73;;;0.30;;
21771;SDS011;11047;47.904;8.110;2024-03-29T13:20:49;1.23;;;0.40;;
21771;SDS011;11047;47.904;8.110;2024-03-29T13:23:16;0.28;;;0.20;;
21771;SDS011;11047;47.904;8.110;2024-03-29T13:25:43;0.95;;;0.30;;
21771;SDS011;11047;47.904;8.110;2024-03-29T13:28:12;0.98;;;0.40;;
21771;SDS011;11047;47.904;8.110;2024-03-29T13:30:39;0.17;;;0.17;;
21771;SDS011;11047;47.904;8.110;2024-03-29T13:33:08;0.40;;;0.40;;
21771;SDS011;11047;47.904;8.110;2024-03-29T13:35:36;0.30;;;0.30;;
21771;SDS011;11047;47.904;8.110;2024-03-29T13:38:03;0.80;;;0.80;;
21771;SDS011;11047;47.904;8.110;2024-03-29T13:40:30;0.47;;;0.45;;
21771;SDS011;11047;47.904;8.110;2024-03-29T13:42:59;0.63;;;0.35;;
21771;SDS011;11047;47.904;8.110;2024-03-29T13:45:27;0.43;;;0.20;;
21771;SDS011;11047;47.904;8.110;2024-03-29T13:47:54;0.70;;;0.43;;
21771;SDS011;11047;47.904;8.110;2024-03-29T13:50:22;0.60;;;0.55;;
21771;SDS011;11047;47.904;8.110;2024-03-29T13:52:49;0.63;;;0.30;;
21771;SDS011;11047;47.904;8.110;2024-03-29T13:55:16;0.75;;;0.60;;
21771;SDS011;11047;47.904;8.110;2024-03-29T13:57:46;1.15;;;1.00;;
21771;SDS011;11047;47.904;8.110;2024-03-29T14:00:13;0.93;;;0.30;;
21771;SDS011;11047;47.904;8.110;2024-03-29T14:02:44;1.40;;;0.73;;
21771;SDS011;11047;47.904;8.110;2024-03-29T14:05:11;1.05;;;0.60;;
21771;SDS011;11047;47.904;8.110;2024-03-29T14:07:39;1.55;;;0.70;;
21771;SDS011;11047;47.904;8.110;2024-03-29T14:10:06;1.35;;;0.30;;
21771;SDS011;11047;47.904;8.110;2024-03-29T14:12:34;0.50;;;0.50;;
21771;SDS011;11047;47.904;8.110;2024-03-29T14:15:02;1.00;;;0.60;;
21771;SDS011;11047;47.904;8.110;2024-03-29T14:17:33;0.40;;;0.40;;
21771;SDS011;11047;47.904;8.110;2024-03-29T14:20:01;1.42;;;0.50;;
21771;SDS011;11047;47.904;8.110;2024-03-29T14:22:30;1.08;;;0.90;;
21771;SDS011;11047;47.904;8.110;2024-03-29T14:24:59;0.50;;;0.50;;
21771;SDS011;11047;47.904;8.110;2024-03-29T14:27:35;1.55;;;0.63;;
21771;SDS011;11047;47.904;8.110;2024-03-29T14:30:12;0.90;;;0.60;;
21771;SDS011;11047;47.904;8.110;2024-03-29T14:32:40;1.25;;;0.65;;
21771;SDS011;11047;47.904;8.110;2024-03-29T14:35:15;0.90;;;0.50;;
21771;SDS011;11047;47.904;8.110;2024-03-29T14:37:42;0.35;;;0.35;;
21771;SDS011;11047;47.904;8.110;2024-03-29T14:40:10;2.35;;;0.43;;
21771;SDS011;11047;47.904;8.110;2024-03-29T14:42:40;0.52;;;0.50;;
21771;SDS011;11047;47.904;8.110;2024-03-29T14:45:07;1.63;;;0.73;;
21771;SDS011;11047;47.904;8.110;2024-03-29T14:47:36;2.08;;;0.88;;
21771;SDS011;11047;47.904;8.110;2024-03-29T14:50:04;1.02;;;0.55;;
21771;SDS011;11047;47.904;8.110;2024-03-29T14:52:37;1.10;;;0.82;;